Time;durP1;ratioP1;P1;durP2;ratioP2;P2;SDS_P1;SDS_P2;PMS_P1;PMS_P2;Temp;Humidity;BMP_temperature;BMP_pressure;BME280_temperature;BME280_humidity;BME280_pressure;Samples;Min_cycle;Max_cycle;Signal;HPM_P1;HPM_P2
2021/12/01 06:13:20;;;;;;;10.02;3.88;;;;;;;-0.23;77.86;98859.13;4984344;28;106251;-70
2021/12/01 06:15:49;;;;;;;6.68;4.97;;;;;;;-0.18;77.80;98859.50;4985557;28;105888;-73
2021/12/01 06:18:15;;;;;;;15.38;5.50;;;;;;;-0.13;78.14;98861.75;4985316;28;106176;-73
2021/12/01 06:20:41;;;;;;;14.80;4.95;;;;;;;-0.08;77.99;98852.53;4985067;28;105804;-75
2021/12/01 06:23:07;;;;;;;13.38;4.32;;;;;;;-0.02;78.17;98846.72;4985005;28;105885;-73
2021/12/01 06:25:33;;;;;;;13.88;5.03;;;;;;;0.06;78.51;98853.94;4986038;28;105713;-71
2021/12/01 06:27:58;;;;;;;14.50;3.92;;;;;;;0.14;78.67;98842.78;4985562;28;105720;-69
2021/12/01 06:30:26;;;;;;;10.93;4.28;;;;;;;0.20;79.00;98831.75;4985263;28;106066;-71
2021/12/01 06:32:52;;;;;;;9.63;3.78;;;;;;;0.27;79.04;98827.59;4985023;28;105898;-72
2021/12/01 06:35:18;;;;;;;13.45;4.20;;;;;;;0.33;78.45;98827.06;4985875;28;106267;-72
2021/12/01 06:37:45;;;;;;;11.15;4.00;;;;;;;0.38;79.01;98831.06;4985172;28;106150;-73
2021/12/01 06:40:12;;;;;;;10.57;4.35;;;;;;;0.44;79.07;98833.94;4984724;28;105873;-71
2021/12/01 06:42:37;;;;;;;10.60;4.13;;;;;;;0.48;78.86;98834.50;4984350;28;106009;-70
2021/12/01 06:45:05;;;;;;;10.43;4.20;;;;;;;0.52;78.82;98837.66;4985406;28;106009;-74
2021/12/01 06:47:31;;;;;;;12.43;4.15;;;;;;;0.54;78.70;98828.69;4984782;28;106277;-70
2021/12/01 06:49:56;;;;;;;11.85;4.43;;;;;;;0.60;79.17;98827.31;4980052;28;106036;-73
2021/12/01 06:52:22;;;;;;;12.43;4.85;;;;;;;0.67;78.83;98817.94;4964821;28;106336;-73
2021/12/01 06:54:47;;;;;;;13.02;4.18;;;;;;;0.74;78.80;98802.44;4965621;28;106009;-71
2021/12/01 06:57:13;;;;;;;12.05;4.80;;;;;;;0.79;78.78;98806.34;4974109;28;106114;-71
2021/12/01 06:59:38;;;;;;;12.85;4.78;;;;;;;0.84;78.70;98798.84;4964807;28;105979;-70
2021/12/01 07:02:04;;;;;;;12.20;5.13;;;;;;;0.89;78.96;98794.97;4964379;28;106227;-71
2021/12/01 07:04:30;;;;;;;11.05;4.30;;;;;;;0.94;78.46;98790.94;4964910;28;106089;-69
2021/12/01 07:06:56;;;;;;;16.02;5.30;;;;;;;1.00;78.88;98784.31;4964720;28;106188;-72
2021/12/01 07:09:24;;;;;;;15.90;6.18;;;;;;;1.08;78.63;98784.44;4964445;28;105880;-70
2021/12/01 07:11:49;;;;;;;18.70;6.22;;;;;;;1.14;78.54;98778.59;4962282;28;107116;-71
2021/12/01 07:14:15;;;;;;;9.63;4.60;;;;;;;1.23;78.67;98776.91;4965412;28;105892;-71
2021/12/01 07:16:40;;;;;;;9.57;4.68;;;;;;;1.28;78.56;98774.66;4972869;28;105899;-72
2021/12/01 07:19:06;;;;;;;8.82;3.17;;;;;;;1.32;78.45;98778.66;4984085;28;105942;-70
2021/12/01 07:21:32;;;;;;;9.82;3.60;;;;;;;1.34;78.03;98773.28;4984349;28;105886;-72
2021/12/01 07:23:58;;;;;;;8.13;3.63;;;;;;;1.35;78.00;98770.50;4975632;28;105957;-71
2021/12/01 07:26:24;;;;;;;10.55;3.92;;;;;;;1.38;78.32;98763.28;4971195;28;106221;-69
2021/12/01 07:28:49;;;;;;;12.10;4.70;;;;;;;1.43;78.00;98753.19;4970941;28;106060;-72
2021/12/01 07:31:15;;;;;;;14.88;5.03;;;;;;;1.47;78.10;98749.31;4970825;28;105965;-68
2021/12/01 07:33:40;;;;;;;14.93;6.95;;;;;;;1.51;77.87;98745.41;4971944;28;106029;-69
2021/12/01 07:36:06;;;;;;;15.80;6.32;;;;;;;1.56;77.89;98735.31;4970843;28;106196;-69
2021/12/01 07:38:31;;;;;;;11.18;5.03;;;;;;;1.65;77.75;98737.03;4970849;28;106400;-70
2021/12/01 07:40:57;;;;;;;14.80;5.88;;;;;;;1.75;77.82;98738.75;4970703;28;106073;-67
2021/12/01 07:43:22;;;;;;;11.48;5.75;;;;;;;1.84;77.71;98719.47;4971577;28;105845;-69
2021/12/01 07:45:47;;;;;;;12.93;6.40;;;;;;;1.90;77.54;98715.41;4971038;28;105775;-67
2021/12/01 07:48:13;;;;;;;17.75;5.53;;;;;;;1.95;77.43;98714.00;4970669;28;105780;-67
2021/12/01 07:50:39;;;;;;;9.93;4.95;;;;;;;1.98;77.14;98708.47;4970498;28;106070;-66
2021/12/01 07:53:05;;;;;;;14.35;5.30;;;;;;;1.99;77.48;98704.81;4970778;28;106283;-70
2021/12/01 07:55:30;;;;;;;15.38;6.05;;;;;;;2.02;77.20;98695.81;4970699;28;106152;-67
2021/12/01 07:57:56;;;;;;;11.77;6.18;;;;;;;2.06;77.31;98691.91;4970130;28;105891;-68
2021/12/01 08:00:22;;;;;;;12.32;6.70;;;;;;;2.07;77.09;98682.25;4970146;28;106086;-68
2021/12/01 08:02:47;;;;;;;16.80;6.72;;;;;;;2.08;76.76;98671.59;4970587;28;106037;-68
2021/12/01 08:05:13;;;;;;;14.65;5.85;;;;;;;2.10;76.93;98674.06;4970403;28;105998;-74
2021/12/01 08:07:39;;;;;;;12.27;5.15;;;;;;;2.12;76.96;98672.09;4969982;28;106121;-67
2021/12/01 08:10:06;;;;;;;13.90;5.43;;;;;;;2.13;76.97;98666.72;4970357;28;105978;-70
2021/12/01 08:12:34;;;;;;;14.73;5.60;;;;;;;2.15;76.68;98666.53;4970327;28;106414;-70
2021/12/01 08:15:04;;;;;;;13.77;5.28;;;;;;;2.14;77.02;98659.63;4970429;28;105926;-76
2021/12/01 08:17:29;;;;;;;13.57;4.68;;;;;;;2.12;76.75;98666.84;4970059;28;106062;-67
2021/12/01 08:19:57;;;;;;;8.90;4.00;;;;;;;2.13;76.98;98652.72;4969847;28;106017;-72
2021/12/01 08:22:23;;;;;;;14.90;5.97;;;;;;;2.13;76.54;98656.19;4970763;28;105897;-69
2021/12/01 08:24:49;;;;;;;10.80;3.92;;;;;;;2.16;76.95;98649.78;4969730;28;105761;-70
2021/12/01 08:27:16;;;;;;;11.20;4.88;;;;;;;2.19;77.09;98646.88;4969315;28;106034;-69
2021/12/01 08:29:41;;;;;;;10.10;5.30;;;;;;;2.25;76.77;98648.88;4969141;28;106662;-70
2021/12/01 08:32:07;;;;;;;15.98;5.72;;;;;;;2.29;76.83;98642.31;4969976;28;106035;-70
2021/12/01 08:34:33;;;;;;;12.18;5.63;;;;;;;2.31;77.14;98643.00;4968585;28;106093;-69
2021/12/01 08:36:58;;;;;;;12.35;4.70;;;;;;;2.35;77.23;98638.25;4969153;28;105863;-70
2021/12/01 08:39:23;;;;;;;13.27;5.03;;;;;;;2.39;76.91;98633.50;4968626;28;106003;-72
2021/12/01 08:41:49;;;;;;;18.33;5.97;;;;;;;2.43;76.81;98632.22;4969476;28;106414;-73
2021/12/01 08:44:14;;;;;;;13.02;5.40;;;;;;;2.48;76.76;98629.94;4969573;28;106200;-70
2021/12/01 08:46:40;;;;;;;11.55;4.65;;;;;;;2.52;77.21;98631.28;4968485;28;105726;-70
2021/12/01 08:49:05;;;;;;;13.55;5.40;;;;;;;2.56;76.89;98632.63;4968651;28;105872;-72
2021/12/01 08:51:31;;;;;;;11.43;5.00;;;;;;;2.64;77.30;98619.50;4969115;28;105957;-73
2021/12/01 08:53:57;;;;;;;12.02;6.45;;;;;;;2.69;76.85;98621.66;4969478;28;105980;-75
2021/12/01 08:56:23;;;;;;;9.73;4.63;;;;;;;2.76;76.99;98613.97;4968913;28;106249;-71
2021/12/01 08:58:48;;;;;;;15.57;6.35;;;;;;;2.80;76.63;98610.03;4969136;28;106410;-73
2021/12/01 09:01:14;;;;;;;16.08;6.80;;;;;;;2.86;76.91;98602.31;4970078;28;106442;-71
2021/12/01 09:03:39;;;;;;;16.50;6.13;;;;;;;2.95;76.77;98594.47;4969225;28;105657;-70
2021/12/01 09:06:05;;;;;;;14.35;6.50;;;;;;;3.05;77.40;98582.00;4967563;28;106669;-72
2021/12/01 09:08:30;;;;;;;14.70;6.55;;;;;;;3.14;76.57;98577.56;4967443;28;106084;-73
2021/12/01 09:10:58;;;;;;;17.15;7.55;;;;;;;3.16;76.72;98570.34;4967666;28;106361;-73
2021/12/01 09:13:27;;;;;;;16.70;6.55;;;;;;;3.25;77.04;98577.25;4967142;28;106291;-72
2021/12/01 09:15:53;;;;;;;10.07;4.95;;;;;;;3.30;76.55;98569.69;4966461;28;106732;-74
2021/12/01 09:18:21;;;;;;;13.23;5.50;;;;;;;3.31;76.76;98562.63;4966205;28;106518;-69
2021/12/01 09:20:50;;;;;;;12.45;5.47;;;;;;;3.29;76.31;98557.50;4967008;28;106181;-70
2021/12/01 09:23:17;;;;;;;14.55;6.47;;;;;;;3.27;76.43;98567.38;4966583;28;106128;-68
2021/12/01 09:25:44;;;;;;;13.32;4.90;;;;;;;3.25;76.08;98548.28;4967081;28;106247;-67
2021/12/01 09:28:11;;;;;;;12.13;5.53;;;;;;;3.25;76.76;98537.75;4968925;28;106559;-72
2021/12/01 09:30:37;;;;;;;7.95;4.30;;;;;;;3.28;76.23;98537.47;4970061;28;106008;-71
2021/12/01 09:33:03;;;;;;;14.98;5.03;;;;;;;3.25;76.84;98532.50;4968951;28;106226;-71
2021/12/01 09:35:28;;;;;;;8.95;4.65;;;;;;;3.25;76.42;98523.78;4969179;28;105964;-74
2021/12/01 09:37:53;;;;;;;9.93;4.38;;;;;;;3.26;76.65;98528.06;4969153;28;106015;-75
2021/12/01 09:40:19;;;;;;;12.00;5.07;;;;;;;3.27;76.46;98519.16;4969544;28;105968;-75
2021/12/01 09:42:49;;;;;;;12.02;5.30;;;;;;;3.29;76.74;98515.41;4969066;28;105947;-74
2021/12/01 09:45:18;;;;;;;14.17;5.60;;;;;;;3.33;76.82;98508.00;4968654;28;105815;-76
2021/12/01 09:47:44;;;;;;;10.38;3.13;;;;;;;3.37;76.84;98507.50;4968479;28;106194;-76
2021/12/01 09:50:10;;;;;;;10.00;4.70;;;;;;;3.41;76.83;98507.19;4969489;28;105931;-76
2021/12/01 09:52:36;;;;;;;9.98;4.57;;;;;;;3.41;76.54;98505.38;4969209;28;106232;-74
2021/12/01 09:55:04;;;;;;;14.05;4.97;;;;;;;3.43;76.73;98498.13;4968530;28;106087;-80
2021/12/01 09:57:29;;;;;;;10.70;4.80;;;;;;;3.48;77.14;98495.81;4968483;28;105821;-79
2021/12/01 09:59:54;;;;;;;10.23;4.78;;;;;;;3.50;76.76;98487.75;4969136;28;106138;-76
2021/12/01 10:02:24;;;;;;;13.13;4.78;;;;;;;3.56;76.67;98489.72;4968085;28;105828;-74
2021/12/01 10:04:50;;;;;;;12.97;6.23;;;;;;;3.60;76.79;98488.41;4965172;28;107273;-72
2021/12/01 10:07:33;;;;;;;10.52;4.85;;;;;;;3.68;77.07;98483.13;4968393;28;106343;-72
2021/12/01 10:10:06;;;;;;;9.05;4.72;;;;;;;3.82;77.21;98478.16;4967628;28;106185;-73
2021/12/01 10:12:51;;;;;;;12.90;5.15;;;;;;;3.95;77.09;98483.72;4968094;28;105977;-69
2021/12/01 10:15:30;;;;;;;6.28;3.20;;;;;;;3.99;76.67;98474.47;4968239;28;105942;-70
2021/12/01 10:18:09;;;;;;;14.05;5.72;;;;;;;4.05;76.80;98475.63;4968007;28;105840;-68
2021/12/01 10:20:34;;;;;;;11.88;5.00;;;;;;;4.05;76.63;98463.25;4967751;28;106038;-69
2021/12/01 10:23:26;;;;;;;10.63;4.65;;;;;;;4.09;76.86;98465.53;4967507;28;106993;-68
2021/12/01 10:25:51;;;;;;;8.27;4.65;;;;;;;4.14;76.77;98452.66;4965698;28;105933;-69
2021/12/01 10:29:00;;;;;;;8.52;4.15;;;;;;;4.22;76.55;98450.84;4966729;28;105958;-70
2021/12/01 10:31:37;;;;;;;9.68;4.40;;;;;;;4.32;76.83;98461.16;4945752;28;106842;-71
2021/12/01 10:34:26;;;;;;;4.88;2.92;;;;;;;4.40;76.26;98444.47;4946032;28;105979;-70
2021/12/01 10:37:10;;;;;;;6.78;2.67;;;;;;;4.48;77.04;98446.25;4961239;28;106163;-70
2021/12/01 10:39:42;;;;;;;5.32;2.60;;;;;;;4.62;77.00;98439.38;4967888;28;106459;-74
2021/12/01 10:42:11;;;;;;;5.55;2.30;;;;;;;4.79;76.65;98433.00;4968521;28;106039;-75
2021/12/01 10:44:37;;;;;;;5.63;2.78;;;;;;;4.97;76.50;98431.91;4967392;28;106406;-68
2021/12/01 10:47:10;;;;;;;5.88;2.33;;;;;;;5.17;76.42;98427.75;4967883;28;105788;-68
2021/12/01 10:49:40;;;;;;;5.40;2.25;;;;;;;5.28;76.27;98408.03;4967177;28;105834;-68
2021/12/01 10:52:07;;;;;;;2.58;1.80;;;;;;;5.38;76.22;98405.94;4968118;28;106162;-70
2021/12/01 10:54:32;;;;;;;3.22;1.75;;;;;;;5.40;75.88;98397.84;4967148;28;106194;-68
2021/12/01 10:57:22;;;;;;;3.67;2.20;;;;;;;5.38;75.43;98392.72;4967463;28;106335;-68
2021/12/01 10:59:52;;;;;;;5.10;2.38;;;;;;;5.37;75.74;98383.19;4969576;28;106556;-70
2021/12/01 11:02:19;;;;;;;4.07;2.47;;;;;;;5.40;75.89;98374.91;4971171;28;106025;-71
2021/12/01 11:04:52;;;;;;;4.38;2.35;;;;;;;5.39;75.90;98372.44;4970471;28;106243;-73
2021/12/01 11:07:28;;;;;;;4.20;2.25;;;;;;;5.38;75.49;98368.97;4970590;28;105954;-71
2021/12/01 11:10:18;;;;;;;3.65;1.83;;;;;;;5.38;75.72;98357.59;4970512;28;106486;-68
2021/12/01 11:12:46;;;;;;;4.63;2.28;;;;;;;5.42;75.85;98357.03;4970733;28;106073;-71
2021/12/01 11:15:17;;;;;;;3.13;1.70;;;;;;;5.41;75.74;98342.22;4970314;28;106179;-71
2021/12/01 11:17:44;;;;;;;3.78;2.15;;;;;;;5.37;75.62;98338.31;4963819;28;106520;-72
2021/12/01 11:20:10;;;;;;;3.20;1.92;;;;;;;5.36;75.53;98328.72;4950446;28;106951;-72
2021/12/01 11:22:36;;;;;;;2.17;1.02;;;;;;;5.33;75.50;98320.34;4951711;28;106186;-70
2021/12/01 11:25:24;;;;;;;2.38;1.30;;;;;;;5.27;75.82;98315.81;4951071;28;106163;-71
2021/12/01 11:27:50;;;;;;;2.55;1.33;;;;;;;5.22;75.73;98309.25;4950687;28;106227;-72
2021/12/01 11:30:17;;;;;;;3.75;1.40;;;;;;;5.20;75.76;98305.16;4951014;28;106244;-76
2021/12/01 11:32:42;;;;;;;3.63;1.85;;;;;;;5.17;75.75;98301.06;4949762;28;106052;-73
2021/12/01 11:35:08;;;;;;;3.33;1.75;;;;;;;5.16;76.37;98298.59;4951195;28;106196;-73
2021/12/01 11:37:34;;;;;;;4.15;2.00;;;;;;;5.13;76.09;98281.31;4950864;28;105775;-73
2021/12/01 11:40:00;;;;;;;3.25;1.55;;;;;;;5.13;76.13;98283.13;4950649;28;106054;-73
2021/12/01 11:42:26;;;;;;;4.57;1.98;;;;;;;5.11;76.14;98256.09;4950944;28;107126;-71
2021/12/01 11:44:55;;;;;;;1.98;1.38;;;;;;;5.09;76.02;98262.34;4950317;28;106131;-71
2021/12/01 11:47:21;;;;;;;5.07;1.80;;;;;;;5.02;76.15;98245.63;4950082;28;106110;-73
2021/12/01 11:49:51;;;;;;;4.60;2.08;;;;;;;4.96;76.21;98238.44;4950384;28;106087;-71
2021/12/01 11:52:26;;;;;;;4.88;2.20;;;;;;;4.92;76.29;98223.94;4950617;28;106008;-72
2021/12/01 11:54:51;;;;;;;4.88;2.58;;;;;;;4.90;76.30;98231.25;4950753;28;106023;-74
2021/12/01 11:57:19;;;;;;;4.05;2.17;;;;;;;4.87;76.70;98221.88;4950988;28;106086;-76
2021/12/01 11:59:49;;;;;;;4.03;2.45;;;;;;;4.86;76.50;98224.69;4951633;28;105962;-78
2021/12/01 12:02:17;;;;;;;3.90;2.27;;;;;;;4.86;76.93;98214.16;4955151;28;106746;-73
2021/12/01 12:04:48;;;;;;;4.30;2.30;;;;;;;4.86;76.97;98208.88;4968562;28;106285;-75
2021/12/01 12:07:25;;;;;;;3.08;1.75;;;;;;;4.87;77.23;98190.22;4968101;28;105916;-78
2021/12/01 12:10:06;;;;;;;3.70;1.80;;;;;;;4.86;76.97;98179.84;4966026;28;106629;-74
2021/12/01 12:12:49;;;;;;;3.75;1.83;;;;;;;4.87;77.15;98176.22;4966398;28;106432;-75
2021/12/01 12:15:40;;;;;;;4.15;1.92;;;;;;;4.90;77.22;98165.28;4965219;28;106141;-74
2021/12/01 12:18:07;;;;;;;3.53;1.70;;;;;;;4.96;76.94;98175.13;4967972;28;106258;-72
2021/12/01 12:20:40;;;;;;;4.03;1.73;;;;;;;5.05;77.21;98170.53;4967781;28;106239;-68
2021/12/01 12:23:09;;;;;;;2.55;1.50;;;;;;;5.28;77.37;98180.97;4969063;28;105896;-69
2021/12/01 12:25:46;;;;;;;3.92;1.83;;;;;;;5.29;76.92;98172.06;4967767;28;106408;-71
2021/12/01 12:28:25;;;;;;;4.47;1.90;;;;;;;5.28;76.68;98180.16;4968952;28;106761;-73
2021/12/01 12:30:53;;;;;;;3.35;1.50;;;;;;;5.29;76.89;98177.34;4968822;28;105886;-73
2021/12/01 12:33:31;;;;;;;3.28;1.77;;;;;;;5.24;76.80;98167.31;4970142;28;105946;-70
2021/12/01 12:36:06;;;;;;;2.95;1.77;;;;;;;5.28;76.95;98165.13;4969511;28;105819;-71
2021/12/01 12:38:32;;;;;;;3.67;1.60;;;;;;;5.28;76.73;98170.41;4969156;28;106231;-72
2021/12/01 12:41:12;;;;;;;3.38;1.35;;;;;;;5.32;77.02;98158.47;4969554;28;106333;-75
2021/12/01 12:43:40;;;;;;;2.80;1.60;;;;;;;5.41;76.98;98162.66;4970378;28;106305;-72
2021/12/01 12:46:12;;;;;;;3.60;1.77;;;;;;;5.54;76.94;98147.94;4969977;28;106151;-81
2021/12/01 12:48:40;;;;;;;4.50;2.08;;;;;;;5.76;76.78;98152.19;4969461;28;105825;-74
2021/12/01 12:51:08;;;;;;;4.75;2.13;;;;;;;5.89;76.42;98138.31;4968665;28;105906;-73
2021/12/01 12:53:33;;;;;;;4.43;2.35;;;;;;;5.94;76.37;98143.00;4970154;28;106419;-73
2021/12/01 12:55:59;;;;;;;8.75;2.85;;;;;;;5.92;75.67;98145.03;4969193;28;106269;-74
2021/12/01 12:58:35;;;;;;;4.93;2.38;;;;;;;5.87;75.80;98129.75;4968753;28;105954;-75
2021/12/01 13:01:01;;;;;;;5.28;2.42;;;;;;;5.81;75.98;98140.25;4969459;28;106113;-73
2021/12/01 13:03:31;;;;;;;6.90;2.85;;;;;;;5.77;75.81;98137.19;4969633;28;106233;-77
2021/12/01 13:05:57;;;;;;;3.22;2.03;;;;;;;5.80;75.91;98133.34;4968558;28;106297;-72
2021/12/01 13:08:44;;;;;;;1.77;1.23;;;;;;;5.84;75.65;98143.34;4966425;28;106797;-74
2021/12/01 13:11:20;;;;;;;3.38;1.75;;;;;;;5.87;75.85;98134.22;4966466;28;106111;-70
2021/12/01 13:13:54;;;;;;;4.22;1.80;;;;;;;5.84;75.21;98135.41;4967714;28;106503;-70
2021/12/01 13:16:19;;;;;;;4.32;1.95;;;;;;;5.84;75.39;98132.78;4967641;28;106325;-71
2021/12/01 13:18:48;;;;;;;4.95;1.98;;;;;;;5.85;75.47;98123.00;4967380;28;106810;-70
2021/12/01 13:21:17;;;;;;;5.55;2.25;;;;;;;5.86;74.93;98116.72;4964362;28;106164;-70
2021/12/01 13:23:50;;;;;;;5.20;1.52;;;;;;;5.85;75.10;98109.78;4967383;28;106126;-80
2021/12/01 13:26:20;;;;;;;3.85;1.63;;;;;;;5.78;74.36;98120.31;4966981;28;106080;-68
2021/12/01 13:28:54;;;;;;;4.65;2.10;;;;;;;5.75;75.02;98116.25;4963373;28;106874;-72
2021/12/01 13:31:26;;;;;;;6.00;2.53;;;;;;;5.79;75.20;98106.09;4962681;28;106027;-66
2021/12/01 13:34:34;;;;;;;5.35;2.50;;;;;;;5.87;75.37;98099.88;4966399;28;105857;-73
2021/12/01 13:37:04;;;;;;;4.90;2.33;;;;;;;5.92;74.88;98108.03;4965459;28;106390;-67
2021/12/01 13:39:35;;;;;;;4.47;2.47;;;;;;;5.95;75.10;98128.00;4965529;28;106494;-67
2021/12/01 13:42:06;;;;;;;7.05;2.53;;;;;;;5.95;74.73;98112.94;4965822;28;107172;-71
2021/12/01 13:44:37;;;;;;;5.70;2.65;;;;;;;6.02;74.73;98108.53;4966510;28;106422;-70
2021/12/01 13:47:10;;;;;;;;;;;;;;;6.08;74.73;98105.16;4966757;28;106016;-69
2021/12/01 13:49:50;;;;;;;4.80;2.45;;;;;;;6.17;74.60;98094.44;4965909;28;106450;-79
2021/12/01 13:52:36;;;;;;;;;;;;;;;6.15;73.94;98088.50;4964830;28;106610;-71
2021/12/01 13:55:25;;;;;;;7.60;2.83;;;;;;;6.09;74.17;98101.47;4966989;28;106312;-77
2021/12/01 13:57:55;;;;;;;2.97;1.70;;;;;;;6.08;73.97;98083.16;4965560;28;105851;-72
2021/12/01 14:00:37;;;;;;;3.10;1.40;;;;;;;6.07;73.64;98097.41;4965770;28;106457;-74
2021/12/01 14:03:04;;;;;;;2.47;1.23;;;;;;;6.06;73.63;98077.28;4966498;28;106170;-74
2021/12/01 14:05:30;;;;;;;4.82;2.15;;;;;;;6.05;73.55;98072.97;4968715;28;106029;-72
2021/12/01 14:08:18;;;;;;;1.83;1.13;;;;;;;6.03;73.08;98062.59;4968554;28;106304;-74
2021/12/01 14:10:55;;;;;;;2.58;1.02;;;;;;;6.00;73.53;98064.81;4946237;28;106085;-76
2021/12/01 14:13:22;;;;;;;1.38;0.82;;;;;;;5.98;73.07;98067.66;4967391;28;106085;-74
2021/12/01 14:15:47;;;;;;;4.35;1.52;;;;;;;5.97;73.04;98052.75;4968441;28;105943;-79
2021/12/01 14:18:16;;;;;;;2.85;1.67;;;;;;;5.96;73.28;98056.44;4968053;28;106165;-71
2021/12/01 14:20:42;;;;;;;7.28;2.65;;;;;;;5.93;72.88;98046.22;4966083;28;105952;-69
2021/12/01 14:23:07;;;;;;;4.78;2.35;;;;;;;5.93;73.43;98047.06;4966158;28;106609;-71
2021/12/01 14:25:33;;;;;;;2.20;1.33;;;;;;;5.91;73.08;98043.78;4966342;28;106267;-69
2021/12/01 14:28:07;;;;;;;3.63;1.60;;;;;;;5.91;72.63;98043.78;4966258;28;106201;-68
2021/12/01 14:30:33;;;;;;;2.63;1.75;;;;;;;5.90;72.88;98028.13;4965603;28;106536;-70
2021/12/01 14:32:59;;;;;;;2.10;1.10;;;;;;;5.90;72.92;98030.78;4966312;28;106891;-69
2021/12/01 14:35:24;;;;;;;2.95;1.80;;;;;;;5.89;72.74;98021.19;4971122;28;105847;-70
2021/12/01 14:37:50;;;;;;;2.38;1.40;;;;;;;5.87;72.92;98033.81;4970886;28;106091;-74
2021/12/01 14:40:19;;;;;;;4.70;1.92;;;;;;;5.86;72.97;98030.31;4970819;28;105998;-73
2021/12/01 14:42:48;;;;;;;2.65;1.77;;;;;;;5.86;72.56;98017.13;4970481;28;106050;-71
2021/12/01 14:45:16;;;;;;;2.60;1.70;;;;;;;5.85;72.88;98006.75;4970456;28;105992;-71
2021/12/01 14:47:42;;;;;;;3.42;1.88;;;;;;;5.85;73.04;98010.22;4971267;28;106000;-70
2021/12/01 14:50:20;;;;;;;2.83;1.63;;;;;;;5.83;72.87;98009.59;4970302;28;105962;-70
2021/12/01 14:52:46;;;;;;;3.28;1.55;;;;;;;5.83;73.05;97992.91;4959707;28;106523;-74
2021/12/01 14:55:21;;;;;;;2.65;1.58;;;;;;;5.80;72.79;97988.84;4970429;28;106002;-71
2021/12/01 14:57:50;;;;;;;1.75;1.10;;;;;;;5.81;72.67;97979.06;4970925;28;106277;-74
2021/12/01 15:00:20;;;;;;;3.40;2.10;;;;;;;5.81;73.02;97979.91;4970389;28;106050;-74
2021/12/01 15:02:45;;;;;;;2.95;1.73;;;;;;;5.80;72.97;97977.47;4970199;28;106278;-71
2021/12/01 15:05:15;;;;;;;4.18;2.08;;;;;;;5.82;72.54;97978.06;4971183;28;105986;-70
2021/12/01 15:07:43;;;;;;;4.80;2.33;;;;;;;5.81;72.92;97976.44;4970562;28;106459;-71
2021/12/01 15:10:18;;;;;;;7.10;3.10;;;;;;;5.82;72.70;97956.94;4970353;28;106650;-72
2021/12/01 15:12:49;;;;;;;2.97;1.38;;;;;;;5.84;73.04;97954.94;4969702;28;106033;-72
2021/12/01 15:15:25;;;;;;;5.03;1.73;;;;;;;5.85;72.55;97953.91;4970948;28;106034;-73
2021/12/01 15:18:09;;;;;;;3.03;1.48;;;;;;;5.86;72.81;97966.09;4968917;28;106242;-80
2021/12/01 15:20:49;;;;;;;2.15;1.50;;;;;;;5.88;72.22;97970.19;4969988;28;105854;-69
2021/12/01 15:23:14;;;;;;;2.40;1.37;;;;;;;5.89;72.23;97974.47;4971394;28;106212;-75
2021/12/01 15:25:40;;;;;;;2.30;1.40;;;;;;;5.87;72.34;97965.91;4971659;28;106428;-71
2021/12/01 15:28:09;;;;;;;2.38;1.60;;;;;;;5.86;71.91;97960.81;4971114;28;105807;-68
2021/12/01 15:30:37;;;;;;;7.22;3.20;;;;;;;5.83;72.38;97948.00;4970187;28;105855;-70
2021/12/01 15:33:08;;;;;;;6.60;3.65;;;;;;;5.83;72.43;97945.38;4969526;28;106170;-70
2021/12/01 15:35:33;;;;;;;5.07;2.75;;;;;;;5.82;71.99;97956.94;4970536;28;107053;-71
2021/12/01 15:37:59;;;;;;;7.85;4.20;;;;;;;5.79;72.19;97952.03;4981008;28;107756;-77
2021/12/01 15:40:25;;;;;;;4.05;2.80;;;;;;;5.75;72.25;97941.88;4978992;28;105950;-74
2021/12/01 15:42:52;;;;;;;8.40;3.70;;;;;;;5.75;72.40;97939.22;4983966;28;106055;-75
2021/12/01 15:45:18;;;;;;;7.22;3.90;;;;;;;5.77;72.35;97936.38;4971762;28;105964;-73
2021/12/01 15:47:45;;;;;;;5.93;3.08;;;;;;;5.77;72.53;97928.47;4981863;28;106292;-72
2021/12/01 15:50:11;;;;;;;5.43;3.13;;;;;;;5.79;72.62;97915.06;4980250;28;106758;-76
2021/12/01 15:52:36;;;;;;;6.53;3.50;;;;;;;5.83;72.50;97916.28;4976259;28;106076;-71
2021/12/01 15:55:02;;;;;;;5.10;3.25;;;;;;;5.81;72.24;97910.38;4986858;28;105933;-75
2021/12/01 15:57:28;;;;;;;6.05;3.08;;;;;;;5.82;72.02;97922.59;4972346;28;106376;-78
2021/12/01 15:59:54;;;;;;;3.75;2.25;;;;;;;5.82;72.24;97912.81;4982058;28;106449;-75
2021/12/01 16:02:20;;;;;;;4.82;2.03;;;;;;;5.85;72.29;97909.81;4980196;28;106695;-74
2021/12/01 16:04:45;;;;;;;5.25;1.90;;;;;;;5.89;72.02;97911.06;4975736;28;106300;-75
2021/12/01 16:07:10;;;;;;;3.90;1.55;;;;;;;5.93;72.19;97898.25;4986161;28;106175;-75
2021/12/01 16:09:36;;;;;;;2.47;1.58;;;;;;;5.97;72.29;97898.66;4966131;28;106637;-73
2021/12/01 16:12:03;;;;;;;2.90;1.52;;;;;;;6.01;71.66;97892.81;4969044;28;106994;-71
2021/12/01 16:14:28;;;;;;;2.67;1.50;;;;;;;6.02;72.00;97891.00;4981242;28;106158;-73
2021/12/01 16:16:53;;;;;;;4.28;2.42;;;;;;;6.02;71.71;97883.88;4973927;28;106230;-72
2021/12/01 16:19:19;;;;;;;3.63;2.00;;;;;;;6.01;72.11;97884.09;4985945;28;106046;-68
2021/12/01 16:21:46;;;;;;;15.27;9.35;;;;;;;6.01;72.06;97884.88;4975311;28;106243;-69
2021/12/01 16:24:11;;;;;;;3.22;2.22;;;;;;;6.02;71.50;97881.22;4980391;28;106069;-73
2021/12/01 16:26:37;;;;;;;4.20;1.80;;;;;;;6.02;72.00;97875.16;4982840;28;106203;-71
2021/12/01 16:29:03;;;;;;;4.60;2.47;;;;;;;6.02;71.46;97870.66;4972361;28;105995;-68
2021/12/01 16:31:29;;;;;;;3.72;2.05;;;;;;;6.00;71.33;97867.41;4984905;28;106042;-69
2021/12/01 16:33:55;;;;;;;4.63;2.30;;;;;;;6.01;71.80;97861.09;4977586;28;106076;-75
2021/12/01 16:36:25;;;;;;;6.43;3.28;;;;;;;6.00;71.57;97867.41;4976418;28;106506;-71
2021/12/01 16:38:50;;;;;;;5.22;2.65;;;;;;;5.98;71.91;97869.44;4983886;28;106033;-74
2021/12/01 16:41:15;;;;;;;6.43;2.58;;;;;;;5.95;71.55;97858.44;4971911;28;105977;-74
2021/12/01 16:43:42;;;;;;;4.57;2.35;;;;;;;5.96;71.84;97858.22;4984347;28;105998;-68
2021/12/01 16:46:08;;;;;;;4.40;2.63;;;;;;;5.97;71.79;97872.25;4978679;28;106181;-70
2021/12/01 16:48:34;;;;;;;4.45;2.70;;;;;;;5.97;71.79;97851.09;4976199;28;105972;-70
2021/12/01 16:51:00;;;;;;;7.68;3.22;;;;;;;5.98;71.83;97864.16;4985036;28;106191;-70
2021/12/01 16:53:26;;;;;;;6.40;3.13;;;;;;;5.99;71.89;97844.63;4973061;28;106043;-72
2021/12/01 16:55:51;;;;;;;6.47;2.47;;;;;;;6.03;71.76;97845.88;4981055;28;106186;-72
2021/12/01 16:58:17;;;;;;;5.20;2.90;;;;;;;5.99;71.74;97857.84;4979503;28;105978;-70
2021/12/01 17:00:46;;;;;;;5.90;3.38;;;;;;;5.97;72.21;97835.25;4974376;28;105898;-71
2021/12/01 17:03:21;;;;;;;3.92;2.35;;;;;;;6.00;72.00;97834.88;4984972;28;106297;-69
2021/12/01 17:05:50;;;;;;;4.97;2.30;;;;;;;5.99;71.88;97827.97;4973387;28;106192;-74
2021/12/01 17:11:12;;;;;;;4.55;2.70;;;;;;;5.95;71.89;97819.59;4967819;28;106156;-67
2021/12/01 17:13:39;;;;;;;2.58;1.75;;;;;;;5.95;72.05;97821.44;4979122;28;105919;-70
2021/12/01 17:16:06;;;;;;;4.75;2.60;;;;;;;5.93;71.86;97824.25;4976126;28;105836;-77
2021/12/01 17:18:32;;;;;;;3.47;1.60;;;;;;;5.94;72.05;97810.03;4965531;28;106189;-77
2021/12/01 17:20:59;;;;;;;5.93;2.60;;;;;;;5.94;72.07;97807.38;4968983;28;106094;-76
2021/12/01 17:23:30;;;;;;;3.25;2.00;;;;;;;5.94;71.79;97804.75;4969241;28;106108;-77
2021/12/01 17:25:57;;;;;;;4.45;2.25;;;;;;;5.94;72.08;97810.03;4966300;28;106241;-76
2021/12/01 17:28:23;;;;;;;2.85;1.75;;;;;;;5.96;72.02;97807.19;4969250;28;106714;-79
2021/12/01 17:30:55;;;;;;;4.82;2.30;;;;;;;5.95;72.32;97806.38;4967773;28;106065;-77
2021/12/01 17:33:21;;;;;;;4.63;2.80;;;;;;;5.97;72.41;97803.53;4967101;28;106221;-75
2021/12/01 17:35:50;;;;;;;3.67;1.77;;;;;;;5.98;72.16;97800.72;4968239;28;106467;-71
2021/12/01 17:38:15;;;;;;;3.90;1.98;;;;;;;6.02;72.12;97794.03;4968012;28;106126;-75
2021/12/01 17:40:41;;;;;;;5.70;2.75;;;;;;;6.04;72.01;97793.81;4968089;28;106090;-77
2021/12/01 17:43:06;;;;;;;4.50;2.42;;;;;;;6.05;72.29;97796.25;4968875;28;106081;-75
2021/12/01 17:45:31;;;;;;;7.10;2.88;;;;;;;6.05;71.84;97787.53;4967070;28;105947;-73
2021/12/01 17:47:57;;;;;;;4.93;2.88;;;;;;;6.06;71.92;97789.97;4968419;28;106010;-69
2021/12/01 17:50:23;;;;;;;6.57;3.17;;;;;;;6.04;72.22;97789.38;4967601;28;106012;-69
2021/12/01 17:52:50;;;;;;;4.15;1.88;;;;;;;6.05;71.71;97782.22;4968829;28;105991;-70
2021/12/01 17:55:18;;;;;;;6.18;3.13;;;;;;;6.06;71.62;97776.75;4967886;28;105916;-71